Terminal Aerodrome Forecast
Issued by NWS Sterling, VA

Current Version | Previous Version | Graphics & Text | Print | Product List | Glossary On
Versions: 1 2 3 4 5 6 7 8 9 10 11 12 13 14 15 16 17 18 19 20 21 22 23 24 25
463
FTUS41 KLWX 190837 AAA
TAFIAD
TAF AMD
KIAD 190837Z 1909/2012 17005KT P6SM BKN050 BKN250
     FM191100 17005KT P6SM VCSH OVC050
     FM191500 18008KT P6SM VCSH OVC020
     FM191800 18009KT P6SM OVC015
     FM200100 19007KT P6SM BKN040=

USA.gov is the U.S. government's official web portal to all federal, state and local government web resources and services.